Time;durP1;ratioP1;P1;durP2;ratioP2;P2;SDS_P1;SDS_P2;PMS_P1;PMS_P2;Temp;Humidity;BMP_temperature;BMP_pressure;BME280_temperature;BME280_humidity;BME280_pressure;Samples;Min_cycle;Max_cycle;Signal;HPM_P1;HPM_P2
2021/07/18 00:00:56;;;;;;;16.77;3.83;;;;;;;0.01;0.00;59042.03;10279410;28;20092;-67
2021/07/18 00:05:55;;;;;;;7.45;3.33;;;;;;;0.01;0.00;59042.03;10280126;28;20127;-67
2021/07/18 00:10:54;;;;;;;11.68;3.95;;;;;;;0.01;0.00;59042.03;10279340;28;20052;-68
2021/07/18 00:15:54;;;;;;;10.63;4.25;;;;;;;0.01;0.00;59042.03;10279394;28;20044;-68
2021/07/18 00:20:53;;;;;;;18.77;4.60;;;;;;;0.01;0.00;59042.03;10278515;28;20450;-67
2021/07/18 00:25:52;;;;;;;5.63;3.78;;;;;;;0.01;0.00;59042.03;10279090;28;20057;-68
2021/07/18 00:30:50;;;;;;;11.77;4.18;;;;;;;0.01;0.00;59042.03;10278707;28;20065;-68
2021/07/18 00:35:51;;;;;;;9.65;4.38;;;;;;;0.01;0.00;59042.03;10317450;28;20130;-67
2021/07/18 00:40:51;;;;;;;11.18;4.05;;;;;;;0.01;0.00;59042.03;10315467;28;20072;-68
2021/07/18 00:45:56;;;;;;;17.17;4.88;;;;;;;0.01;0.00;59042.03;10316434;28;20474;-68
2021/07/18 00:50:56;;;;;;;13.18;4.25;;;;;;;0.01;0.00;59042.03;10318524;28;20417;-68
2021/07/18 00:55:55;;;;;;;8.35;3.63;;;;;;;0.01;0.00;59042.03;10318393;28;20051;-68
2021/07/18 01:00:55;;;;;;;9.13;4.28;;;;;;;0.01;0.00;59042.03;10299500;28;20425;-68
2021/07/18 01:05:54;;;;;;;13.07;4.03;;;;;;;0.01;0.00;59042.03;10318022;28;20556;-68
2021/07/18 01:10:54;;;;;;;10.70;3.90;;;;;;;0.01;0.00;59042.03;10317817;28;20401;-68
2021/07/18 01:15:52;;;;;;;11.43;4.55;;;;;;;0.01;0.00;59042.03;10316860;28;20051;-68
2021/07/18 01:20:51;;;;;;;10.25;4.15;;;;;;;0.01;0.00;59042.03;10316779;28;20064;-68
2021/07/18 01:25:53;;;;;;;11.30;4.05;;;;;;;0.01;0.00;59042.03;10317009;28;20071;-68
2021/07/18 01:30:52;;;;;;;10.15;4.07;;;;;;;0.01;0.00;59042.03;10317394;28;20068;-64
2021/07/18 01:35:51;;;;;;;14.48;4.72;;;;;;;0.01;0.00;59042.03;10317317;28;20513;-63
2021/07/18 01:40:50;;;;;;;8.85;3.85;;;;;;;0.01;0.00;59042.03;10316411;28;20134;-64
2021/07/18 01:45:50;;;;;;;6.18;4.00;;;;;;;0.01;0.00;59042.03;10316053;28;20076;-64
2021/07/18 01:50:49;;;;;;;10.60;5.05;;;;;;;0.01;0.00;59042.03;10315825;28;20442;-62
2021/07/18 01:55:53;;;;;;;10.93;4.38;;;;;;;0.01;0.00;59042.03;10314668;28;20079;-64
2021/07/18 02:00:54;;;;;;;11.25;4.90;;;;;;;0.01;0.00;59042.03;10315286;28;20466;-64
2021/07/18 02:05:52;;;;;;;8.13;3.95;;;;;;;0.01;0.00;59042.03;10316481;28;20076;-63
2021/07/18 02:10:51;;;;;;;8.93;4.00;;;;;;;0.01;0.00;59042.03;10315302;28;20505;-64
2021/07/18 02:15:50;;;;;;;9.32;4.60;;;;;;;0.01;0.00;59042.03;10314966;28;20051;-64
2021/07/18 02:20:50;;;;;;;11.15;5.07;;;;;;;0.01;0.00;59042.03;10315865;28;20036;-63
2021/07/18 02:25:50;;;;;;;12.38;5.32;;;;;;;0.01;0.00;59042.03;10315775;28;20076;-64
2021/07/18 02:30:49;;;;;;;15.30;4.72;;;;;;;0.01;0.00;59042.03;10315815;28;20071;-64
2021/07/18 02:35:49;;;;;;;10.15;4.57;;;;;;;0.01;0.00;59042.03;10315240;28;20056;-64
2021/07/18 02:40:48;;;;;;;6.80;4.45;;;;;;;0.01;0.00;59042.03;10315390;28;20047;-64
2021/07/18 02:45:47;;;;;;;10.38;4.30;;;;;;;0.01;0.00;59042.03;10314897;28;20087;-64
2021/07/18 02:50:46;;;;;;;9.23;4.32;;;;;;;0.01;0.00;59042.03;10314746;28;20045;-64
2021/07/18 02:55:46;;;;;;;11.75;3.95;;;;;;;0.01;0.00;59042.03;10314444;28;20270;-64
2021/07/18 03:00:45;;;;;;;9.77;4.30;;;;;;;0.01;0.00;59042.03;10315720;28;20068;-64
2021/07/18 03:05:44;;;;;;;8.80;4.13;;;;;;;0.01;0.00;59042.03;10320495;28;20082;-64
2021/07/18 03:10:42;;;;;;;9.93;4.32;;;;;;;0.01;0.00;59042.03;10321523;28;20037;-64
2021/07/18 03:15:43;;;;;;;8.63;4.40;;;;;;;0.01;0.00;59042.03;10321135;28;20076;-63
2021/07/18 03:20:41;;;;;;;12.82;5.03;;;;;;;0.01;0.00;59042.03;10320755;28;20059;-63
2021/07/18 03:25:40;;;;;;;8.68;4.40;;;;;;;0.01;0.00;59042.03;10320633;28;20072;-64
2021/07/18 03:30:39;;;;;;;10.55;4.90;;;;;;;0.01;0.00;59042.03;10321919;28;20040;-64
2021/07/18 03:35:39;;;;;;;7.70;4.82;;;;;;;0.01;0.00;59042.03;10320344;28;20053;-64
2021/07/18 03:40:38;;;;;;;12.35;4.80;;;;;;;0.01;0.00;59042.03;10319761;28;20615;-63
2021/07/18 03:45:36;;;;;;;8.60;4.78;;;;;;;0.01;0.00;59042.03;10319147;28;20080;-64
2021/07/18 03:50:35;;;;;;;6.93;4.35;;;;;;;0.01;0.00;59042.03;10320501;28;20476;-63
2021/07/18 03:55:35;;;;;;;10.23;4.72;;;;;;;0.01;0.00;59042.03;10320436;28;20059;-63
2021/07/18 04:00:34;;;;;;;11.75;5.40;;;;;;;0.01;0.00;59042.03;10318815;28;20068;-62
2021/07/18 04:05:33;;;;;;;10.55;4.60;;;;;;;0.01;0.00;59042.03;10315069;28;20072;-62
2021/07/18 04:10:32;;;;;;;10.05;4.57;;;;;;;0.01;0.00;59042.03;10319199;28;20037;-62
2021/07/18 04:15:32;;;;;;;9.55;4.78;;;;;;;0.01;0.00;59042.03;10319337;28;20107;-64
2021/07/18 04:20:31;;;;;;;9.57;5.80;;;;;;;0.01;0.00;59042.03;10318296;28;20075;-62
2021/07/18 04:25:30;;;;;;;8.25;4.90;;;;;;;0.01;0.00;59042.03;10317079;28;20075;-64
2021/07/18 04:30:28;;;;;;;10.35;6.22;;;;;;;0.01;0.00;59042.03;10311661;28;20068;-62
2021/07/18 04:35:29;;;;;;;8.98;6.15;;;;;;;0.01;0.00;59042.03;10315990;28;20076;-63
2021/07/18 04:40:27;;;;;;;7.88;5.35;;;;;;;0.01;0.00;59042.03;10315025;28;20051;-64
2021/07/18 04:45:26;;;;;;;10.88;6.38;;;;;;;0.01;0.00;59042.03;10315068;28;20081;-64
2021/07/18 04:50:27;;;;;;;12.05;4.40;;;;;;;0.01;0.00;59042.03;10314921;28;20493;-64
2021/07/18 04:55:27;;;;;;;10.98;5.38;;;;;;;0.01;0.00;59042.03;10313244;28;20364;-64
2021/07/18 05:00:26;;;;;;;9.77;6.20;;;;;;;0.01;0.00;59042.03;10313544;28;20070;-64
2021/07/18 05:05:25;;;;;;;10.93;5.03;;;;;;;0.01;0.00;59042.03;10314174;28;20083;-63
2021/07/18 05:10:27;;;;;;;26.42;14.60;;;;;;;0.01;0.00;59042.03;10317576;28;20055;-64
2021/07/18 05:15:27;;;;;;;15.05;6.97;;;;;;;0.01;0.00;59042.03;10316151;28;20074;-64
2021/07/18 05:20:26;;;;;;;12.77;5.53;;;;;;;0.01;0.00;59042.03;10314798;28;20049;-63
2021/07/18 05:25:26;;;;;;;7.90;5.68;;;;;;;0.01;0.00;59042.03;10314697;28;20076;-65
2021/07/18 05:30:25;;;;;;;9.73;5.70;;;;;;;0.01;0.00;59042.03;10316420;28;20049;-64
2021/07/18 05:35:24;;;;;;;14.82;7.00;;;;;;;0.01;0.00;59042.03;10315548;28;20064;-64
2021/07/18 05:40:23;;;;;;;11.95;6.47;;;;;;;0.01;0.00;59042.03;10296776;28;20061;-64
2021/07/18 05:45:23;;;;;;;15.18;6.55;;;;;;;0.01;0.00;59042.03;10315026;28;20111;-64
2021/07/18 05:50:22;;;;;;;11.20;7.28;;;;;;;0.01;0.00;59042.03;10313981;28;20529;-63
2021/07/18 05:55:22;;;;;;;10.13;6.40;;;;;;;0.01;0.00;59042.03;10314897;28;20036;-63
2021/07/18 06:00:22;;;;;;;15.70;7.13;;;;;;;0.01;0.00;59042.03;10314618;28;20040;-62
2021/07/18 06:05:21;;;;;;;10.70;6.82;;;;;;;0.01;0.00;59042.03;10314867;28;20074;-62
2021/07/18 06:10:20;;;;;;;11.85;7.03;;;;;;;0.01;0.00;59042.03;10314440;28;20067;-62
2021/07/18 06:15:19;;;;;;;16.45;7.95;;;;;;;0.01;0.00;59042.03;10313042;28;20041;-62
2021/07/18 06:20:20;;;;;;;9.63;6.97;;;;;;;0.01;0.00;59042.03;10313864;28;20102;-62
2021/07/18 06:25:19;;;;;;;14.60;8.48;;;;;;;0.01;0.00;59042.03;10314851;28;20087;-62
2021/07/18 06:30:18;;;;;;;10.88;7.90;;;;;;;0.01;0.00;59042.03;10296256;28;20047;-61
2021/07/18 06:35:17;;;;;;;10.38;7.25;;;;;;;0.01;0.00;59042.03;10313974;28;20051;-62
2021/07/18 06:40:17;;;;;;;12.77;7.43;;;;;;;0.01;0.00;59042.03;10320386;28;20099;-62
2021/07/18 06:45:16;;;;;;;17.20;7.93;;;;;;;0.01;0.00;59042.03;10322131;28;20082;-62
2021/07/18 06:50:16;;;;;;;16.48;8.27;;;;;;;0.01;0.00;59042.03;10321173;28;20051;-62
2021/07/18 06:55:17;;;;;;;23.90;8.35;;;;;;;0.01;0.00;59042.03;10320830;28;20060;-62
2021/07/18 07:00:17;;;;;;;13.00;8.07;;;;;;;0.01;0.00;59042.03;10321190;28;20071;-62
2021/07/18 07:05:16;;;;;;;12.73;9.15;;;;;;;0.01;0.00;59042.03;10320626;28;20514;-62
2021/07/18 07:10:18;;;;;;;19.95;8.43;;;;;;;0.01;0.00;59042.03;10321545;28;20044;-62
2021/07/18 07:15:17;;;;;;;17.80;9.45;;;;;;;0.01;0.00;59042.03;10320397;28;20521;-62
2021/07/18 07:20:16;;;;;;;15.52;9.38;;;;;;;0.01;0.00;59042.03;10320453;28;20514;-62
2021/07/18 07:25:17;;;;;;;13.90;7.97;;;;;;;0.01;0.00;59042.03;10320261;28;20124;-62
2021/07/18 07:30:16;;;;;;;13.27;7.85;;;;;;;0.01;0.00;59042.03;10320162;28;20048;-62
2021/07/18 07:35:16;;;;;;;12.50;8.20;;;;;;;0.01;0.00;59042.03;10319968;28;20056;-62
2021/07/18 07:40:18;;;;;;;10.57;8.20;;;;;;;0.01;0.00;59042.03;10319829;28;20040;-62
2021/07/18 07:45:17;;;;;;;14.57;7.50;;;;;;;0.01;0.00;59042.03;10319774;28;20094;-62
2021/07/18 07:50:16;;;;;;;20.08;10.15;;;;;;;0.01;0.00;59042.03;10317808;28;20084;-62
2021/07/18 07:55:16;;;;;;;18.75;10.55;;;;;;;0.01;0.00;59042.03;10319654;28;20555;-62
2021/07/18 08:00:17;;;;;;;24.88;9.70;;;;;;;0.01;0.00;59042.03;10318750;28;20088;-62
2021/07/18 08:05:18;;;;;;;13.90;8.55;;;;;;;0.01;0.00;59042.03;10318836;28;20076;-62
2021/07/18 08:10:20;;;;;;;15.45;8.80;;;;;;;0.01;0.00;59042.03;10317668;28;20064;-62
2021/07/18 08:15:20;;;;;;;17.08;8.00;;;;;;;0.01;0.00;59042.03;10317718;28;20078;-62
2021/07/18 08:20:21;;;;;;;18.77;9.50;;;;;;;0.01;0.00;59042.03;10318562;28;20081;-62
2021/07/18 08:25:23;;;;;;;15.75;9.15;;;;;;;0.01;0.00;59042.03;10318661;28;20076;-62
2021/07/18 08:30:22;;;;;;;17.40;10.38;;;;;;;0.01;0.00;59042.03;10318585;28;20841;-62
2021/07/18 08:35:21;;;;;;;14.02;9.30;;;;;;;0.01;0.00;59042.03;10317734;28;20084;-62
2021/07/18 08:40:22;;;;;;;13.88;8.50;;;;;;;0.01;0.00;59042.03;10317660;28;20051;-62
2021/07/18 08:45:22;;;;;;;15.85;9.63;;;;;;;0.01;0.00;59042.03;10318087;28;20446;-62
2021/07/18 08:50:21;;;;;;;15.80;9.02;;;;;;;0.01;0.00;59042.03;10316446;28;20051;-62
2021/07/18 08:55:20;;;;;;;11.88;8.85;;;;;;;0.01;0.00;59042.03;10316484;28;20052;-63
2021/07/18 09:00:20;;;;;;;12.13;8.55;;;;;;;0.01;0.00;59042.03;10314947;28;20076;-62
2021/07/18 09:05:19;;;;;;;15.77;8.60;;;;;;;0.01;0.00;59042.03;10315772;28;20529;-62
2021/07/18 09:10:22;;;;;;;13.52;8.80;;;;;;;0.01;0.00;59042.03;10316419;28;20103;-62
2021/07/18 09:15:22;;;;;;;12.77;8.25;;;;;;;0.01;0.00;59042.03;10316375;28;20079;-60
2021/07/18 09:20:22;;;;;;;14.23;7.70;;;;;;;0.01;0.00;59042.03;10316673;28;20036;-62
2021/07/18 09:25:20;;;;;;;10.60;7.82;;;;;;;0.01;0.00;59042.03;10315084;28;20083;-62
2021/07/18 09:30:21;;;;;;;21.30;7.60;;;;;;;0.01;0.00;59042.03;10315297;28;20254;-62
2021/07/18 09:35:28;;;;;;;11.50;7.80;;;;;;;;;;10391541;27;20136;-63
2021/07/18 09:40:27;;;;;;;8.77;7.88;;;;;;;;;;10391500;28;20055;-63
2021/07/18 09:45:26;;;;;;;19.10;8.65;;;;;;;;;;10391793;28;20058;-63
2021/07/18 09:50:26;;;;;;;15.88;7.43;;;;;;;;;;10391207;28;20055;-62
2021/07/18 09:55:26;;;;;;;14.10;7.53;;;;;;;;;;10390780;28;20079;-64
2021/07/18 10:00:37;;;;;;;18.60;7.38;;;;;;;;;;10390618;28;20126;-63
2021/07/18 10:05:35;;;;;;;10.13;7.57;;;;;;;;;;10390534;28;20463;-64
2021/07/18 10:10:36;;;;;;;13.02;7.53;;;;;;;;;;10390412;28;20063;-62
2021/07/18 10:15:34;;;;;;;16.20;6.85;;;;;;;;;;10390105;28;20075;-62
2021/07/18 10:20:33;;;;;;;16.55;6.78;;;;;;;;;;10390453;28;20055;-63
2021/07/18 10:25:31;;;;;;;13.27;7.85;;;;;;;;;;10390180;28;20055;-63
2021/07/18 10:30:32;;;;;;;8.63;6.30;;;;;;;;;;10389831;28;20453;-64
2021/07/18 10:35:30;;;;;;;8.52;6.30;;;;;;;;;;10389293;28;20063;-63
2021/07/18 10:40:29;;;;;;;12.52;6.25;;;;;;;;;;10389916;28;20476;-65
2021/07/18 10:45:27;;;;;;;11.88;6.18;;;;;;;;;;10369429;28;20075;-63
2021/07/18 10:50:44;;;;;;;10.10;5.45;;;;;;;;;;10361193;28;20519;-64
2021/07/18 10:55:45;;;;;;;8.18;4.55;;;;;;;;;;10360998;28;20079;-63
2021/07/18 11:00:48;;;;;;;8.35;5.00;;;;;;;;;;10360951;28;20082;-63
2021/07/18 11:05:48;;;;;;;16.15;4.93;;;;;;;;;;10361273;28;20040;-63
2021/07/18 11:10:49;;;;;;;7.82;5.50;;;;;;;;;;10360862;28;20048;-63
2021/07/18 11:15:47;;;;;;;5.43;4.63;;;;;;;;;;10360492;28;20500;-63
2021/07/18 11:21:03;;;;;;;8.90;5.57;;;;;;;;;;10360401;28;20086;-64
2021/07/18 11:26:10;;;;;;;5.15;4.20;;;;;;;;;;10360907;28;20044;-63
2021/07/18 11:31:22;;;;;;;23.60;5.53;;;;;;;;;;10359829;28;20052;-63
2021/07/18 11:36:21;;;;;;;8.60;4.38;;;;;;;;;;10360147;28;20076;-63
2021/07/18 11:41:22;;;;;;;10.38;4.50;;;;;;;;;;10359305;28;20475;-63
2021/07/18 11:46:21;;;;;;;13.52;5.60;;;;;;;;;;10359174;28;20063;-62
2021/07/18 11:51:20;;;;;;;10.45;5.35;;;;;;;;;;10359406;28;20059;-63
2021/07/18 11:56:22;;;;;;;8.98;4.65;;;;;;;;;;10357816;28;20036;-62
2021/07/18 12:01:21;;;;;;;10.05;4.57;;;;;;;;;;10358804;28;20044;-63
2021/07/18 12:06:19;;;;;;;11.35;5.25;;;;;;;;;;10358450;28;20193;-64
2021/07/18 12:11:24;;;;;;;8.75;4.35;;;;;;;;;;10358673;28;20055;-63
2021/07/18 12:16:23;;;;;;;9.45;5.25;;;;;;;;;;10358365;28;20083;-63
2021/07/18 12:21:22;;;;;;;9.68;5.40;;;;;;;;;;10358068;28;20071;-62
2021/07/18 12:26:21;;;;;;;10.27;5.03;;;;;;;;;;10358008;28;20079;-62
2021/07/18 12:31:21;;;;;;;7.78;4.95;;;;;;;;;;10357183;28;20044;-62
2021/07/18 12:36:19;;;;;;;14.07;7.10;;;;;;;;;;10357354;28;20075;-62
2021/07/18 12:41:18;;;;;;;10.73;6.00;;;;;;;;;;10357274;28;20432;-63
2021/07/18 12:46:22;;;;;;;10.05;6.28;;;;;;;;;;10357122;28;20040;-62
2021/07/18 12:51:21;;;;;;;9.63;4.43;;;;;;;;;;10356861;28;20052;-63
2021/07/18 12:56:19;;;;;;;8.73;4.88;;;;;;;;;;10356641;28;20067;-63
2021/07/18 13:01:18;;;;;;;8.57;5.28;;;;;;;;;;10356605;28;20040;-62
2021/07/18 13:06:19;;;;;;;10.57;5.28;;;;;;;;;;10356343;28;20064;-64
2021/07/18 13:11:31;;;;;;;7.82;5.53;;;;;;;;;;10355259;28;20436;-64
2021/07/18 13:16:33;;;;;;;9.18;5.50;;;;;;;;;;10356293;28;20498;-64
2021/07/18 13:21:33;;;;;;;9.45;5.45;;;;;;;;;;10348122;28;20072;-65
2021/07/18 13:26:32;;;;;;;11.95;6.13;;;;;;;;;;10325778;28;20067;-64
2021/07/18 13:31:30;;;;;;;40.05;8.70;;;;;;;;;;10338911;28;20072;-64
2021/07/18 13:36:28;;;;;;;9.60;6.45;;;;;;;;;;10335688;28;20072;-63
2021/07/18 13:41:28;;;;;;;11.07;6.65;;;;;;;;;;10344371;28;20040;-64
2021/07/18 13:46:26;;;;;;;9.63;5.88;;;;;;;;;;10316290;28;20075;-64
2021/07/18 13:51:28;;;;;;;8.27;6.22;;;;;;;;;;10326148;28;20055;-64
2021/07/18 13:56:28;;;;;;;10.55;6.00;;;;;;;;;;10332637;28;20485;-64
2021/07/18 14:01:26;;;;;;;8.35;6.30;;;;;;;;;;10325089;28;20072;-64
2021/07/18 14:06:24;;;;;;;12.32;6.05;;;;;;;;;;10345746;28;20403;-64
2021/07/18 14:11:23;;;;;;;10.23;6.43;;;;;;;;;;10329846;28;20488;-63
2021/07/18 14:16:22;;;;;;;10.05;6.10;;;;;;;;;;10326940;28;20076;-64
2021/07/18 14:21:21;;;;;;;6.18;5.13;;;;;;;;;;10321212;28;20047;-64
2021/07/18 14:26:19;;;;;;;9.82;5.85;;;;;;;;;;10322654;28;20041;-63
2021/07/18 14:31:18;;;;;;;13.80;5.95;;;;;;;;;;10322738;28;20064;-64
2021/07/18 14:36:18;;;;;;;12.43;5.28;;;;;;;;;;10323597;28;20068;-64
2021/07/18 14:41:16;;;;;;;8.85;4.80;;;;;;;;;;10340750;28;20501;-64
2021/07/18 14:46:17;;;;;;;10.50;5.43;;;;;;;;;;10354536;28;20051;-63
2021/07/18 14:51:17;;;;;;;13.60;5.72;;;;;;;;;;10347161;28;20090;-63
2021/07/18 14:56:16;;;;;;;7.32;5.00;;;;;;;;;;10321417;28;20072;-63
2021/07/18 15:01:14;;;;;;;7.13;4.65;;;;;;;;;;10325780;28;20064;-64
2021/07/18 15:06:12;;;;;;;10.25;4.90;;;;;;;;;;10343213;28;20550;-63
2021/07/18 15:11:12;;;;;;;8.70;4.43;;;;;;;;;;10337072;28;20088;-63
2021/07/18 15:16:10;;;;;;;10.98;5.57;;;;;;;;;;10332973;28;20078;-63
2021/07/18 15:21:09;;;;;;;10.68;5.82;;;;;;;;;;10326421;28;20079;-63
2021/07/18 15:26:08;;;;;;;11.88;5.03;;;;;;;;;;10341402;28;20064;-63
2021/07/18 15:31:07;;;;;;;6.13;4.20;;;;;;;;;;10334380;28;20075;-63
2021/07/18 15:36:06;;;;;;;6.45;4.80;;;;;;;;;;10344170;28;20071;-65
2021/07/18 15:41:04;;;;;;;6.95;4.57;;;;;;;;;;10330592;28;20068;-63
2021/07/18 15:46:02;;;;;;;8.95;4.22;;;;;;;;;;10335897;28;20040;-64
2021/07/18 15:51:02;;;;;;;9.93;4.90;;;;;;;;;;10334697;28;20525;-63
2021/07/18 15:56:01;;;;;;;12.20;4.40;;;;;;;;;;10333855;28;20080;-64
2021/07/18 16:00:59;;;;;;;11.32;5.47;;;;;;;;;;10338221;28;20064;-64
2021/07/18 16:05:58;;;;;;;6.65;4.47;;;;;;;;;;10332952;28;20068;-65
2021/07/18 16:10:58;;;;;;;9.02;4.40;;;;;;;;;;10339154;28;20074;-65
2021/07/18 16:15:56;;;;;;;10.88;4.38;;;;;;;;;;10337260;28;20076;-63
2021/07/18 16:20:55;;;;;;;10.38;4.78;;;;;;;;;;10339223;28;20409;-63
2021/07/18 16:25:57;;;;;;;11.00;4.82;;;;;;;;;;10338986;28;20036;-63
2021/07/18 16:30:58;;;;;;;7.00;4.53;;;;;;;;;;10337686;28;20071;-63
2021/07/18 16:35:57;;;;;;;11.98;5.30;;;;;;;;;;10319194;28;20079;-62
2021/07/18 16:40:57;;;;;;;8.57;5.32;;;;;;;;;;10311296;28;20505;-67
2021/07/18 16:45:57;;;;;;;10.15;5.35;;;;;;;;;;10315802;28;20064;-67
2021/07/18 16:50:55;;;;;;;10.55;4.93;;;;;;;;;;10315516;28;20092;-67
2021/07/18 16:55:53;;;;;;;9.18;5.20;;;;;;;;;;10315772;28;20458;-67
2021/07/18 17:00:52;;;;;;;10.68;5.22;;;;;;;;;;10315518;28;20048;-67
2021/07/18 17:05:51;;;;;;;9.80;4.80;;;;;;;;;;10328004;28;20080;-68
2021/07/18 17:10:50;;;;;;;11.13;5.63;;;;;;;;;;10331205;28;20044;-66
2021/07/18 17:15:48;;;;;;;11.55;6.13;;;;;;;;;;10330250;28;20076;-68
2021/07/18 17:20:46;;;;;;;17.83;6.68;;;;;;;;;;10330974;28;20214;-67
2021/07/18 17:25:46;;;;;;;13.70;6.10;;;;;;;;;;10320084;28;20064;-67
2021/07/18 17:30:44;;;;;;;13.90;5.35;;;;;;;;;;10337059;28;20068;-67
2021/07/18 17:35:43;;;;;;;11.07;5.82;;;;;;;;;;10339397;28;20075;-66
2021/07/18 17:40:42;;;;;;;8.68;5.30;;;;;;;;;;10331799;28;20068;-66
2021/07/18 17:45:42;;;;;;;12.63;5.18;;;;;;;;;;10340278;28;20508;-67
2021/07/18 17:50:41;;;;;;;16.35;4.88;;;;;;;;;;10325956;28;20072;-67
2021/07/18 17:55:39;;;;;;;16.42;5.22;;;;;;;;;;10336336;28;20525;-67
2021/07/18 18:00:37;;;;;;;9.80;5.55;;;;;;;;;;10332279;28;20529;-66
2021/07/18 18:05:37;;;;;;;14.60;5.70;;;;;;;;;;10337825;28;20052;-66
2021/07/18 18:10:36;;;;;;;18.33;5.72;;;;;;;;;;10339211;28;20086;-66
2021/07/18 18:15:34;;;;;;;14.07;5.15;;;;;;;;;;10347106;28;20532;-67
2021/07/18 18:20:32;;;;;;;8.98;5.18;;;;;;;;;;10339669;28;20041;-67
2021/07/18 18:25:32;;;;;;;9.30;4.85;;;;;;;;;;10332285;28;20075;-66
2021/07/18 18:30:30;;;;;;;9.80;5.05;;;;;;;;;;10340811;28;20082;-67
2021/07/18 18:35:31;;;;;;;14.23;5.82;;;;;;;;;;10342654;28;20067;-68
2021/07/18 18:40:30;;;;;;;15.07;5.28;;;;;;;;;;10342726;28;20044;-68
2021/07/18 18:45:30;;;;;;;15.65;4.95;;;;;;;;;;10342298;28;20051;-66
2021/07/18 18:50:28;;;;;;;13.70;5.45;;;;;;;;;;10335207;28;20064;-68
2021/07/18 18:55:27;;;;;;;9.35;4.53;;;;;;;;;;10336763;28;20068;-68
2021/07/18 19:00:25;;;;;;;10.65;4.95;;;;;;;;;;10334880;28;20079;-67
2021/07/18 19:05:25;;;;;;;21.52;6.10;;;;;;;;;;10336868;28;20070;-68
2021/07/18 19:10:23;;;;;;;10.23;6.03;;;;;;;;;;10319021;28;20063;-68
2021/07/18 19:15:21;;;;;;;14.65;5.05;;;;;;;;;;10318317;28;20501;-68
2021/07/18 19:20:20;;;;;;;13.68;5.03;;;;;;;;;;10330486;28;20448;-68
2021/07/18 19:25:20;;;;;;;22.98;5.60;;;;;;;;;;10341268;28;20060;-68
2021/07/18 19:30:18;;;;;;;11.75;5.45;;;;;;;;;;10340525;28;20060;-67
2021/07/18 19:35:17;;;;;;;11.15;5.35;;;;;;;;;;10339359;28;20076;-67
2021/07/18 19:40:16;;;;;;;8.63;4.90;;;;;;;;;;10336088;28;20446;-66
2021/07/18 19:45:16;;;;;;;7.82;5.57;;;;;;;;;;10337904;28;20037;-68
2021/07/18 19:50:15;;;;;;;9.35;4.82;;;;;;;;;;10317366;28;20064;-68
2021/07/18 19:55:15;;;;;;;10.48;4.93;;;;;;;;;;10325243;28;20079;-67
2021/07/18 20:00:14;;;;;;;9.88;4.95;;;;;;;;;;10338708;28;20047;-67
2021/07/18 20:05:14;;;;;;;17.65;5.18;;;;;;;;;;10339866;28;20032;-67
2021/07/18 20:10:20;;;;;;;9.10;5.05;;;;;;;;;;10338985;28;20069;-67
2021/07/18 20:15:18;;;;;;;9.52;5.30;;;;;;;;;;10338343;28;20064;-67
2021/07/18 20:20:18;;;;;;;15.63;5.38;;;;;;;;;;10332353;28;20071;-67
2021/07/18 20:25:16;;;;;;;16.95;6.50;;;;;;;;;;10330494;28;20461;-67
2021/07/18 20:30:15;;;;;;;12.30;5.25;;;;;;;;;;10333606;28;20484;-67
2021/07/18 20:35:14;;;;;;;8.93;5.75;;;;;;;;;;10327645;28;20083;-67
2021/07/18 20:40:14;;;;;;;14.27;6.10;;;;;;;;;;10322026;28;20072;-68
2021/07/18 20:45:13;;;;;;;8.65;5.45;;;;;;;;;;10328596;28;20084;-68
2021/07/18 20:50:14;;;;;;;22.30;6.70;;;;;;;;;;10317903;28;20036;-67
2021/07/18 20:55:14;;;;;;;13.93;6.63;;;;;;;;;;10318838;28;20044;-68
2021/07/18 21:00:12;;;;;;;11.30;6.88;;;;;;;;;;10317645;28;20044;-66
2021/07/18 21:05:11;;;;;;;9.88;6.35;;;;;;;;;;10317742;28;20032;-67
2021/07/18 21:10:10;;;;;;;14.73;6.68;;;;;;;;;;10316446;28;20048;-68
2021/07/18 21:15:10;;;;;;;14.52;7.25;;;;;;;;;;10317103;28;20040;-68
2021/07/18 21:20:09;;;;;;;11.00;6.43;;;;;;;;;;10317024;28;20044;-67
2021/07/18 21:25:08;;;;;;;10.20;7.60;;;;;;;;;;10316861;28;20045;-67
2021/07/18 21:30:07;;;;;;;8.82;7.80;;;;;;;;;;10316599;28;20056;-67
2021/07/18 21:35:07;;;;;;;12.15;6.90;;;;;;;;;;10315647;28;20059;-68
2021/07/18 21:40:06;;;;;;;11.15;7.03;;;;;;;;;;10317100;28;20045;-67
2021/07/18 21:45:05;;;;;;;13.10;6.75;;;;;;;;;;10316925;28;20045;-67
2021/07/18 21:50:03;;;;;;;13.48;7.53;;;;;;;;;;10316812;28;20044;-67
2021/07/18 21:55:03;;;;;;;16.05;8.02;;;;;;;;;;10316518;28;20048;-67
2021/07/18 22:00:02;;;;;;;14.10;7.30;;;;;;;;;;10316547;28;20048;-67
2021/07/18 22:05:08;;;;;;;8.20;6.72;;;;;;;;;;10317073;28;20059;-67
2021/07/18 22:10:09;;;;;;;12.70;8.02;;;;;;;;;;10316392;28;20040;-67
2021/07/18 22:15:10;;;;;;;13.77;8.45;;;;;;;;;;10315983;28;20044;-68
2021/07/18 22:20:09;;;;;;;10.95;6.88;;;;;;;;;;10314836;28;20083;-68
2021/07/18 22:25:09;;;;;;;10.15;7.55;;;;;;;;;;10315975;28;20048;-67
2021/07/18 22:30:09;;;;;;;10.65;6.70;;;;;;;;;;10313874;28;20524;-68
2021/07/18 22:35:08;;;;;;;13.77;7.18;;;;;;;;;;10314676;28;20056;-67
2021/07/18 22:40:06;;;;;;;9.93;7.32;;;;;;;;;;10316233;28;20084;-67
2021/07/18 22:45:07;;;;;;;15.35;7.30;;;;;;;;;;10322811;28;20045;-67
2021/07/18 22:50:07;;;;;;;13.73;7.47;;;;;;;;;;10322891;28;20040;-67
2021/07/18 22:55:07;;;;;;;11.05;6.75;;;;;;;;;;10322723;28;20040;-67
2021/07/18 23:00:09;;;;;;;8.77;7.13;;;;;;;;;;10322408;28;20080;-66
2021/07/18 23:05:09;;;;;;;7.97;6.80;;;;;;;;;;10322176;28;20048;-66
2021/07/18 23:10:08;;;;;;;19.30;6.68;;;;;;;;;;10322138;28;20052;-66
2021/07/18 23:15:09;;;;;;;11.93;6.85;;;;;;;;;;10321793;28;20134;-66
2021/07/18 23:20:09;;;;;;;19.17;7.43;;;;;;;;;;10321498;28;20045;-67
2021/07/18 23:25:08;;;;;;;9.23;6.45;;;;;;;;;;10321369;28;20044;-66
2021/07/18 23:30:09;;;;;;;16.25;6.80;;;;;;;;;;10321437;28;20044;-66
2021/07/18 23:35:08;;;;;;;16.02;7.10;;;;;;;;;;10319931;28;20056;-67
2021/07/18 23:40:07;;;;;;;12.45;6.30;;;;;;;;;;10320914;28;20076;-67
2021/07/18 23:45:06;;;;;;;11.40;7.28;;;;;;;;;;10320660;28;20041;-67
2021/07/18 23:50:07;;;;;;;11.85;6.97;;;;;;;;;;10320390;28;20072;-66
2021/07/18 23:55:06;;;;;;;21.02;7.38;;;;;;;;;;10320265;28;20046;-66
